createdAt,value
2019-05-12T00:01:39.521Z,16.86
2019-05-12T00:04:29.950Z,16.84
2019-05-12T00:07:20.207Z,16.88
2019-05-12T00:10:10.507Z,16.76
2019-05-12T00:13:00.740Z,16.68
2019-05-12T00:15:51.084Z,16.60
2019-05-12T00:18:41.362Z,16.70
2019-05-12T00:21:31.655Z,16.69
2019-05-12T00:24:21.862Z,16.71
2019-05-12T00:27:17.706Z,16.59
2019-05-12T00:30:10.101Z,16.56
2019-05-12T00:32:58.706Z,16.62
2019-05-12T00:35:48.912Z,16.61
2019-05-12T00:38:39.219Z,16.59
2019-05-12T00:41:29.407Z,16.52
2019-05-12T00:44:20.100Z,16.68
2019-05-12T00:47:10.403Z,16.68
2019-05-12T00:50:00.821Z,16.63
2019-05-12T00:52:51.150Z,16.62
2019-05-12T00:55:41.510Z,16.79
2019-05-12T00:58:31.619Z,16.77
2019-05-12T01:01:21.886Z,16.79
2019-05-12T01:04:12.121Z,16.81
2019-05-12T01:07:02.423Z,16.77
2019-05-12T01:09:52.712Z,16.75
2019-05-12T01:12:43.118Z,16.76
2019-05-12T01:15:33.142Z,16.58
2019-05-12T01:18:23.687Z,16.56
2019-05-12T01:21:13.999Z,16.44
2019-05-12T01:24:04.257Z,16.42
2019-05-12T01:26:54.563Z,16.40
2019-05-12T01:29:44.903Z,16.36
2019-05-12T01:32:38.347Z,16.40
2019-05-12T01:35:29.640Z,16.28
2019-05-12T01:38:19.833Z,16.32
2019-05-12T01:41:10.167Z,16.26
2019-05-12T01:44:00.359Z,16.19
2019-05-12T01:46:50.510Z,16.26
2019-05-12T01:49:40.746Z,16.19
2019-05-12T01:52:31.236Z,16.13
2019-05-12T01:55:21.480Z,16.13
2019-05-12T01:58:11.523Z,16.05
2019-05-12T02:01:03.058Z,15.89
2019-05-12T02:03:53.198Z,16.00
2019-05-12T02:06:43.218Z,15.94
2019-05-12T02:09:34.953Z,15.93
2019-05-12T02:12:24.740Z,15.93
2019-05-12T02:15:18.384Z,15.96
2019-05-12T02:18:09.265Z,16.00
2019-05-12T02:20:59.760Z,15.93
2019-05-12T02:23:50.013Z,15.87
2019-05-12T02:26:40.286Z,15.92
2019-05-12T02:29:30.649Z,15.94
2019-05-12T02:32:23.751Z,15.97
2019-05-12T02:35:16.087Z,16.03
2019-05-12T02:38:05.435Z,15.92
2019-05-12T02:40:55.884Z,15.99
2019-05-12T02:43:46.172Z,15.91
2019-05-12T02:46:36.129Z,15.97
2019-05-12T02:49:26.154Z,15.93
2019-05-12T02:52:16.177Z,16.06
2019-05-12T02:55:06.899Z,15.99
2019-05-12T02:57:57.163Z,16.00
2019-05-12T03:00:47.470Z,16.06
2019-05-12T03:03:37.878Z,15.96
2019-05-12T03:06:28.373Z,15.94
2019-05-12T03:09:18.395Z,15.95
2019-05-12T03:12:08.895Z,15.99
2019-05-12T03:14:58.995Z,15.96
2019-05-12T03:17:49.096Z,15.95
2019-05-12T03:20:39.366Z,15.83
2019-05-12T03:23:29.563Z,16.06
2019-05-12T03:26:19.541Z,16.05
2019-05-12T03:29:09.796Z,16.12
2019-05-12T03:31:59.947Z,16.27
2019-05-12T03:34:50.136Z,16.32
2019-05-12T03:37:40.166Z,16.33
2019-05-12T03:40:30.489Z,16.49
2019-05-12T03:43:20.501Z,16.55
2019-05-12T03:46:10.689Z,16.75
2019-05-12T03:49:04.870Z,16.87
2019-05-12T03:51:54.374Z,16.94
2019-05-12T03:54:45.226Z,16.98
2019-05-12T03:57:35.232Z,17.16
2019-05-12T04:00:25.495Z,17.40
2019-05-12T04:03:15.852Z,17.85
2019-05-12T04:06:07.093Z,18.69
2019-05-12T04:08:59.926Z,19.96
2019-05-12T04:11:49.712Z,20.95
2019-05-12T04:14:54.968Z,21.86
2019-05-12T04:17:50.160Z,22.65
2019-05-12T04:20:40.577Z,23.61
2019-05-12T04:23:30.972Z,24.37
2019-05-12T04:26:21.101Z,25.29
2019-05-12T04:29:11.345Z,26.27
2019-05-12T04:32:01.565Z,26.88
2019-05-12T04:34:54.822Z,27.56
2019-05-12T04:37:44.845Z,28.55
2019-05-12T04:40:36.504Z,29.17
2019-05-12T04:43:27.442Z,30.18
2019-05-12T04:46:18.293Z,30.27
2019-05-12T04:49:09.017Z,30.52
2019-05-12T04:51:59.862Z,30.63
2019-05-12T04:54:50.681Z,30.82
2019-05-12T04:57:44.789Z,31.64
2019-05-12T05:00:35.048Z,32.15
2019-05-12T05:03:26.409Z,32.49
2019-05-12T05:06:17.344Z,32.79
2019-05-12T05:09:09.202Z,32.65
2019-05-12T05:11:59.971Z,31.83
2019-05-12T05:14:51.117Z,32.67
2019-05-12T05:17:44.105Z,33.31
2019-05-12T05:20:34.645Z,33.77
2019-05-12T05:23:25.495Z,34.17
2019-05-12T05:26:24.643Z,32.99
2019-05-12T05:29:08.720Z,34.57
2019-05-12T05:32:00.722Z,34.62
2019-05-12T05:34:55.863Z,34.77
2019-05-12T05:37:44.395Z,34.27
2019-05-12T05:40:36.064Z,33.67
2019-05-12T05:43:27.095Z,32.99
2019-05-12T05:46:18.041Z,33.16
2019-05-12T05:49:08.973Z,33.69
2019-05-12T05:51:59.872Z,34.24
2019-05-12T05:54:53.111Z,34.14
2019-05-12T05:57:44.353Z,34.92
2019-05-12T06:00:38.971Z,34.85
2019-05-12T06:03:28.091Z,34.07
2019-05-12T06:06:19.217Z,33.26
2019-05-12T06:09:10.006Z,32.71
2019-05-12T06:12:05.259Z,33.13
2019-05-12T06:14:55.316Z,33.78
2019-05-12T06:17:45.412Z,34.73
2019-05-12T06:20:38.138Z,33.66
2019-05-12T06:23:33.906Z,34.35
2019-05-12T06:26:31.013Z,35.58
2019-05-12T06:29:20.092Z,35.32
2019-05-12T06:32:10.721Z,34.96
2019-05-12T06:35:01.511Z,35.58
2019-05-12T06:38:00.198Z,34.80
2019-05-12T06:40:45.298Z,36.08
2019-05-12T06:43:39.532Z,36.17
2019-05-12T06:46:29.775Z,35.67
2019-05-12T06:49:20.581Z,36.26
2019-05-12T06:52:11.560Z,35.72
2019-05-12T06:55:04.059Z,34.90
2019-05-12T06:57:54.811Z,33.89
2019-05-12T07:00:45.655Z,33.47
2019-05-12T07:03:37.392Z,34.52
2019-05-12T07:06:28.347Z,34.78
2019-05-12T07:09:26.741Z,35.50
2019-05-12T07:12:13.584Z,35.32
2019-05-12T07:15:03.923Z,35.36
2019-05-12T07:18:04.248Z,35.35
2019-05-12T07:20:55.227Z,34.21
2019-05-12T07:23:46.165Z,32.31
2019-05-12T07:26:37.199Z,30.42
2019-05-12T07:29:28.118Z,29.11
2019-05-12T07:32:21.885Z,27.40
2019-05-12T07:35:11.094Z,26.59
2019-05-12T07:38:04.291Z,26.65
2019-05-12T07:40:53.927Z,26.40
2019-05-12T07:43:44.658Z,26.01
2019-05-12T07:46:39.630Z,26.06
2019-05-12T07:49:34.228Z,26.17
2019-05-12T07:52:20.036Z,26.27
2019-05-12T07:55:10.966Z,26.06
2019-05-12T07:58:09.981Z,25.35
2019-05-12T08:01:02.361Z,25.38
2019-05-12T08:03:51.043Z,25.27
2019-05-12T08:06:41.633Z,24.57
2019-05-12T08:09:33.159Z,24.69
2019-05-12T08:12:23.793Z,24.85
2019-05-12T08:15:14.285Z,24.43
2019-05-12T08:18:07.795Z,24.37
2019-05-12T08:20:59.772Z,24.53
2019-05-12T08:23:48.985Z,24.70
2019-05-12T08:26:39.020Z,24.38
2019-05-12T08:29:29.364Z,23.93
2019-05-12T08:32:20.381Z,23.70
2019-05-12T08:35:10.805Z,23.67
2019-05-12T08:38:03.636Z,24.52
2019-05-12T08:40:54.447Z,26.18
2019-05-12T08:43:51.475Z,28.38
2019-05-12T08:46:43.203Z,30.59
2019-05-12T08:49:33.531Z,30.70
2019-05-12T08:52:23.603Z,30.48
2019-05-12T08:55:16.814Z,30.47
2019-05-12T08:58:07.212Z,31.27
2019-05-12T09:00:58.045Z,31.24
2019-05-12T09:03:49.050Z,30.75
2019-05-12T09:06:39.847Z,28.83
2019-05-12T09:09:30.748Z,28.85
2019-05-12T09:12:23.329Z,26.87
2019-05-12T09:15:13.795Z,24.97
2019-05-12T09:18:05.003Z,24.02
2019-05-12T09:20:55.963Z,23.37
2019-05-12T09:23:46.286Z,23.32
2019-05-12T09:26:36.671Z,22.98
2019-05-12T09:29:26.644Z,22.87
2019-05-12T09:32:17.427Z,22.83
2019-05-12T09:35:07.704Z,22.77
2019-05-12T09:37:58.181Z,22.73
2019-05-12T09:40:55.046Z,22.74
2019-05-12T09:43:45.419Z,22.77
2019-05-12T09:46:34.266Z,23.11
2019-05-12T09:49:31.381Z,23.09
2019-05-12T09:52:22.725Z,22.86
2019-05-12T09:55:08.145Z,22.80
2019-05-12T09:57:58.458Z,22.81
2019-05-12T10:00:48.775Z,22.94
2019-05-12T10:03:40.145Z,22.90
2019-05-12T10:06:30.722Z,22.63
2019-05-12T10:09:24.464Z,22.66
2019-05-12T10:12:15.141Z,22.82
2019-05-12T10:15:06.401Z,22.90
2019-05-12T10:18:00.287Z,22.93
2019-05-12T10:20:48.360Z,23.02
2019-05-12T10:23:38.390Z,23.03
2019-05-12T10:26:28.568Z,22.67
2019-05-12T10:29:20.811Z,22.31
2019-05-12T10:32:13.225Z,22.52
2019-05-12T10:35:02.886Z,22.35
2019-05-12T10:37:54.148Z,22.16
2019-05-12T10:40:47.801Z,22.17
2019-05-12T10:43:36.411Z,22.19
2019-05-12T10:46:28.552Z,22.45
2019-05-12T10:49:18.759Z,22.54
2019-05-12T10:52:08.858Z,22.67
2019-05-12T10:54:59.899Z,22.58
2019-05-12T10:57:53.011Z,22.61
2019-05-12T11:00:44.209Z,22.46
2019-05-12T11:03:33.975Z,22.50
2019-05-12T11:06:24.505Z,22.77
2019-05-12T11:09:14.829Z,22.82
2019-05-12T11:12:05.408Z,22.68
2019-05-12T11:14:55.940Z,22.67
2019-05-12T11:18:03.633Z,22.60
2019-05-12T11:20:54.387Z,22.50
2019-05-12T11:23:45.715Z,22.62
2019-05-12T11:26:36.011Z,22.57
2019-05-12T11:29:26.383Z,22.55
2019-05-12T11:32:17.748Z,22.50
2019-05-12T11:35:08.025Z,22.57
2019-05-12T11:37:58.218Z,22.52
2019-05-12T11:40:48.476Z,22.58
2019-05-12T11:43:38.897Z,22.87
2019-05-12T11:46:29.293Z,22.91
2019-05-12T11:49:21.759Z,23.26
2019-05-12T11:52:16.730Z,23.40
2019-05-12T11:55:02.938Z,23.42
2019-05-12T11:57:54.529Z,23.58
2019-05-12T12:00:47.845Z,23.68
2019-05-12T12:03:37.846Z,23.51
2019-05-12T12:06:27.941Z,23.39
2019-05-12T12:09:18.981Z,23.31
2019-05-12T12:12:10.348Z,23.20
2019-05-12T12:15:00.280Z,23.03
2019-05-12T12:17:50.534Z,22.92
2019-05-12T12:20:40.765Z,22.89
2019-05-12T12:23:30.865Z,22.84
2019-05-12T12:26:30.375Z,22.81
2019-05-12T12:29:17.723Z,22.58
2019-05-12T12:32:09.815Z,22.74
2019-05-12T12:35:00.961Z,22.75
2019-05-12T12:37:53.927Z,22.75
2019-05-12T12:40:44.172Z,22.72
2019-05-12T12:43:34.323Z,22.74
2019-05-12T12:46:27.733Z,22.82
2019-05-12T12:49:17.755Z,22.71
2019-05-12T12:52:08.128Z,22.50
2019-05-12T12:54:59.439Z,22.48
2019-05-12T12:57:50.823Z,22.52
2019-05-12T13:00:47.114Z,22.31
2019-05-12T13:03:34.094Z,22.23
2019-05-12T13:06:24.556Z,22.43
2019-05-12T13:09:24.196Z,22.34
2019-05-12T13:12:14.341Z,22.13
2019-05-12T13:14:57.900Z,21.99
2019-05-12T13:17:48.115Z,21.85
2019-05-12T13:20:38.449Z,21.88
2019-05-12T13:23:38.022Z,21.81
2019-05-12T13:26:20.717Z,21.90
2019-05-12T13:29:13.261Z,21.88
2019-05-12T13:32:03.351Z,21.97
2019-05-12T13:34:53.845Z,21.98
2019-05-12T13:37:44.150Z,22.01
2019-05-12T13:40:39.217Z,22.15
2019-05-12T13:43:26.595Z,21.94
2019-05-12T13:46:17.056Z,22.04
2019-05-12T13:49:07.476Z,21.83
2019-05-12T13:51:57.762Z,21.79
2019-05-12T13:54:48.093Z,21.69
2019-05-12T13:57:43.933Z,21.66
2019-05-12T14:00:30.347Z,21.54
2019-05-12T14:03:20.611Z,21.49
2019-05-12T14:06:11.195Z,21.49
2019-05-12T14:09:01.237Z,21.52
2019-05-12T14:11:53.837Z,21.47
2019-05-12T14:14:44.285Z,21.65
2019-05-12T14:17:37.314Z,21.82
2019-05-12T14:20:26.293Z,22.07
2019-05-12T14:23:16.816Z,22.21
2019-05-12T14:26:09.199Z,22.31
2019-05-12T14:28:59.225Z,22.14
2019-05-12T14:31:55.047Z,22.17
2019-05-12T14:34:43.370Z,22.08
2019-05-12T14:37:33.720Z,22.00
2019-05-12T14:40:29.863Z,21.89
2019-05-12T14:43:21.161Z,21.81
2019-05-12T14:46:10.344Z,21.90
2019-05-12T14:48:59.456Z,21.96
2019-05-12T14:51:49.542Z,21.82
2019-05-12T14:54:39.730Z,21.67
2019-05-12T14:57:37.311Z,21.62
2019-05-12T15:00:23.956Z,21.58
2019-05-12T15:03:16.137Z,21.49
2019-05-12T15:06:07.672Z,21.57
2019-05-12T15:08:56.869Z,21.51
2019-05-12T15:11:47.123Z,21.46
2019-05-12T15:14:38.112Z,21.43
2019-05-12T15:17:28.713Z,21.35
2019-05-12T15:20:18.825Z,21.22
2019-05-12T15:23:09.352Z,21.16
2019-05-12T15:25:59.781Z,21.06
2019-05-12T15:28:50.060Z,21.34
2019-05-12T15:31:52.744Z,21.38
2019-05-12T15:34:33.734Z,21.45
2019-05-12T15:37:23.871Z,21.46
2019-05-12T15:40:14.718Z,21.39
2019-05-12T15:43:06.487Z,21.23
2019-05-12T15:45:59.397Z,21.22
2019-05-12T15:48:49.217Z,21.02
2019-05-12T15:51:50.967Z,21.11
2019-05-12T15:54:31.197Z,21.01
2019-05-12T15:57:21.220Z,20.85
2019-05-12T16:00:16.370Z,20.86
2019-05-12T16:03:03.014Z,20.84
2019-05-12T16:05:53.560Z,20.74
2019-05-12T16:08:45.114Z,20.72
2019-05-12T16:11:35.779Z,20.59
2019-05-12T16:14:30.372Z,20.57
2019-05-12T16:17:24.633Z,20.57
2019-05-12T16:20:10.463Z,20.52
2019-05-12T16:23:00.876Z,20.67
2019-05-12T16:25:51.096Z,20.66
2019-05-12T16:28:43.959Z,20.58
2019-05-12T16:31:33.920Z,20.50
2019-05-12T16:34:24.419Z,20.53
2019-05-12T16:37:14.463Z,20.48
2019-05-12T16:40:05.035Z,20.33
2019-05-12T16:42:59.548Z,19.99
2019-05-12T16:45:46.779Z,19.98
2019-05-12T16:48:37.025Z,19.90
2019-05-12T16:51:27.311Z,19.63
2019-05-12T16:54:17.467Z,19.50
2019-05-12T16:57:12.863Z,19.40
2019-05-12T17:00:03.552Z,19.21
2019-05-12T17:02:57.901Z,19.08
2019-05-12T17:05:50.119Z,19.08
2019-05-12T17:08:37.467Z,19.00
2019-05-12T17:11:30.975Z,18.92
2019-05-12T17:14:19.905Z,18.89
2019-05-12T17:17:10.977Z,18.86
2019-05-12T17:20:01.328Z,18.85
2019-05-12T17:22:57.764Z,18.78
2019-05-12T17:25:43.194Z,18.78
2019-05-12T17:28:34.355Z,18.79
2019-05-12T17:31:25.875Z,18.74
2019-05-12T17:34:16.174Z,18.70
2019-05-12T17:37:06.461Z,18.71
2019-05-12T17:39:56.731Z,18.70
2019-05-12T17:42:47.176Z,18.67
2019-05-12T17:45:37.364Z,18.64
2019-05-12T17:48:27.862Z,18.68
2019-05-12T17:51:20.474Z,18.61
2019-05-12T17:54:13.519Z,18.65
2019-05-12T17:57:04.015Z,18.66
2019-05-12T17:59:54.592Z,18.64
2019-05-12T18:02:49.435Z,18.64
2019-05-12T18:05:36.973Z,18.63
2019-05-12T18:08:32.490Z,18.63
2019-05-12T18:11:18.983Z,18.60
2019-05-12T18:14:09.189Z,18.50
2019-05-12T18:17:08.501Z,18.58
2019-05-12T18:19:59.023Z,18.60
2019-05-12T18:22:44.879Z,18.65
2019-05-12T18:25:36.754Z,18.60
2019-05-12T18:28:29.473Z,18.56
2019-05-12T18:31:18.861Z,18.56
2019-05-12T18:34:09.176Z,18.58
2019-05-12T18:37:00.084Z,18.70
2019-05-12T18:39:53.474Z,18.61
2019-05-12T18:42:43.367Z,18.39
2019-05-12T18:45:34.211Z,18.41
2019-05-12T18:48:25.388Z,18.45
2019-05-12T18:51:17.352Z,18.37
2019-05-12T18:54:10.238Z,18.25
2019-05-12T18:57:06.758Z,18.16
2019-05-12T18:59:55.129Z,18.13
2019-05-12T19:02:44.317Z,18.11
2019-05-12T19:05:34.403Z,17.99
2019-05-12T19:08:24.818Z,17.98
2019-05-12T19:11:22.534Z,18.02
2019-05-12T19:14:07.299Z,17.92
2019-05-12T19:16:57.721Z,17.86
2019-05-12T19:19:52.091Z,17.84
2019-05-12T19:22:48.138Z,17.73
2019-05-12T19:25:35.924Z,17.74
2019-05-12T19:28:23.948Z,17.74
2019-05-12T19:31:14.283Z,17.80
2019-05-12T19:34:17.987Z,17.76
2019-05-12T19:36:56.507Z,17.75
2019-05-12T19:39:46.516Z,17.77
2019-05-12T19:42:36.794Z,17.73
2019-05-12T19:45:26.823Z,17.80
2019-05-12T19:48:24.911Z,17.78
2019-05-12T19:51:20.853Z,17.74
2019-05-12T19:54:00.822Z,17.77
2019-05-12T19:56:53.749Z,17.74
2019-05-12T19:59:50.872Z,17.75
2019-05-12T20:02:35.773Z,17.65
2019-05-12T20:05:26.264Z,17.76
2019-05-12T20:08:16.680Z,17.82
2019-05-12T20:11:06.703Z,17.78
2019-05-12T20:13:57.028Z,17.88
2019-05-12T20:16:47.397Z,17.96
2019-05-12T20:19:37.731Z,17.89
2019-05-12T20:22:28.153Z,18.04
2019-05-12T20:25:18.369Z,17.99
2019-05-12T20:28:11.392Z,18.12
2019-05-12T20:31:01.599Z,18.19
2019-05-12T20:33:57.315Z,18.25
2019-05-12T20:36:44.494Z,18.29
2019-05-12T20:39:34.909Z,18.33
2019-05-12T20:42:25.257Z,18.37
2019-05-12T20:45:15.575Z,18.37
2019-05-12T20:48:05.918Z,18.47
2019-05-12T20:50:56.111Z,18.33
2019-05-12T20:53:46.210Z,18.58
2019-05-12T20:56:36.302Z,18.68
2019-05-12T20:59:28.313Z,18.71
2019-05-12T21:02:18.559Z,18.68
2019-05-12T21:05:14.786Z,18.66
2019-05-12T21:08:03.746Z,18.61
2019-05-12T21:10:54.122Z,18.63
2019-05-12T21:13:44.338Z,18.53
2019-05-12T21:16:38.775Z,18.54
2019-05-12T21:19:29.350Z,18.55
2019-05-12T21:22:17.852Z,18.47
2019-05-12T21:25:10.711Z,18.48
2019-05-12T21:28:07.636Z,18.44
2019-05-12T21:30:53.080Z,18.47
2019-05-12T21:33:43.877Z,18.54
2019-05-12T21:36:34.327Z,18.55
2019-05-12T21:39:24.851Z,18.49
2019-05-12T21:42:15.294Z,18.47
2019-05-12T21:45:05.686Z,18.54
2019-05-12T21:47:56.705Z,18.50
2019-05-12T21:50:46.990Z,18.54
2019-05-12T21:53:37.349Z,18.49
2019-05-12T21:56:27.695Z,18.49
2019-05-12T21:59:17.967Z,18.54
2019-05-12T22:02:08.371Z,18.55
2019-05-12T22:04:58.749Z,18.63
2019-05-12T22:07:49.110Z,18.68
2019-05-12T22:10:39.268Z,18.73
2019-05-12T22:13:29.619Z,18.65
2019-05-12T22:16:20.017Z,18.63
2019-05-12T22:19:10.381Z,18.68
2019-05-12T22:22:01.106Z,18.72
2019-05-12T22:24:53.628Z,18.71
2019-05-12T22:27:43.358Z,18.67
2019-05-12T22:30:34.834Z,18.71
2019-05-12T22:33:25.321Z,18.71
2019-05-12T22:36:25.392Z,18.71
2019-05-12T22:39:08.448Z,18.74
2019-05-12T22:41:58.428Z,18.77
2019-05-12T22:44:52.964Z,18.79
2019-05-12T22:47:40.689Z,18.79
2019-05-12T22:50:33.220Z,18.80
2019-05-12T22:53:25.742Z,18.72
2019-05-12T22:56:17.930Z,18.81
2019-05-12T22:59:07.793Z,18.81
2019-05-12T23:01:58.452Z,18.78
2019-05-12T23:04:48.675Z,18.78
2019-05-12T23:07:39.011Z,18.81
2019-05-12T23:10:29.248Z,18.90
2019-05-12T23:13:19.934Z,18.94
2019-05-12T23:16:14.033Z,18.94
2019-05-12T23:19:10.402Z,18.99
2019-05-12T23:21:58.509Z,18.96
2019-05-12T23:24:46.724Z,19.02
2019-05-12T23:27:37.032Z,19.01
2019-05-12T23:30:27.338Z,19.04
2019-05-12T23:33:17.589Z,19.02
2019-05-12T23:36:09.468Z,19.04
2019-05-12T23:39:00.752Z,19.03
2019-05-12T23:41:53.771Z,19.05
2019-05-12T23:44:44.304Z,19.06
2019-05-12T23:47:34.628Z,19.01
2019-05-12T23:50:24.851Z,19.01
2019-05-12T23:53:15.371Z,18.93
2019-05-12T23:56:05.670Z,18.86
2019-05-12T23:58:55.815Z,18.85
